sensor_id;sensor_type;location;lat;lon;timestamp;P1;durP1;ratioP1;P2;durP2;ratioP2
5945;SDS011;2998;48.206;16.394;2023-01-29T00:00:12;4.30;;;3.97;;
5945;SDS011;2998;48.206;16.394;2023-01-29T00:02:41;4.10;;;3.90;;
5945;SDS011;2998;48.206;16.394;2023-01-29T00:05:11;4.20;;;3.97;;
5945;SDS011;2998;48.206;16.394;2023-01-29T00:07:54;5.60;;;5.20;;
5945;SDS011;2998;48.206;16.394;2023-01-29T00:10:25;13.30;;;4.50;;
5945;SDS011;2998;48.206;16.394;2023-01-29T00:12:53;3.37;;;3.17;;
5945;SDS011;2998;48.206;16.394;2023-01-29T00:15:21;4.37;;;4.17;;
5945;SDS011;2998;48.206;16.394;2023-01-29T00:17:49;4.30;;;4.00;;
5945;SDS011;2998;48.206;16.394;2023-01-29T00:20:19;4.13;;;3.80;;
5945;SDS011;2998;48.206;16.394;2023-01-29T00:22:47;3.37;;;3.17;;
5945;SDS011;2998;48.206;16.394;2023-01-29T00:25:17;4.60;;;4.20;;
5945;SDS011;2998;48.206;16.394;2023-01-29T00:27:44;4.17;;;3.87;;
5945;SDS011;2998;48.206;16.394;2023-01-29T00:30:12;4.63;;;4.23;;
5945;SDS011;2998;48.206;16.394;2023-01-29T00:32:45;3.70;;;3.47;;
5945;SDS011;2998;48.206;16.394;2023-01-29T00:35:13;3.80;;;3.50;;
5945;SDS011;2998;48.206;16.394;2023-01-29T00:37:41;4.83;;;4.50;;
5945;SDS011;2998;48.206;16.394;2023-01-29T00:40:09;5.20;;;4.70;;
5945;SDS011;2998;48.206;16.394;2023-01-29T00:42:39;5.60;;;5.10;;
5945;SDS011;2998;48.206;16.394;2023-01-29T00:45:24;6.03;;;4.97;;
5945;SDS011;2998;48.206;16.394;2023-01-29T00:47:52;6.23;;;4.90;;
5945;SDS011;2998;48.206;16.394;2023-01-29T00:50:20;5.77;;;5.17;;
5945;SDS011;2998;48.206;16.394;2023-01-29T00:52:48;5.87;;;5.30;;
5945;SDS011;2998;48.206;16.394;2023-01-29T00:55:17;6.53;;;5.67;;
5945;SDS011;2998;48.206;16.394;2023-01-29T00:57:46;19.70;;;8.87;;
5945;SDS011;2998;48.206;16.394;2023-01-29T01:00:16;6.50;;;5.77;;
5945;SDS011;2998;48.206;16.394;2023-01-29T01:02:45;6.97;;;6.27;;
5945;SDS011;2998;48.206;16.394;2023-01-29T01:05:30;7.03;;;6.20;;
5945;SDS011;2998;48.206;16.394;2023-01-29T01:07:58;8.90;;;6.70;;
5945;SDS011;2998;48.206;16.394;2023-01-29T01:10:34;7.10;;;6.47;;
5945;SDS011;2998;48.206;16.394;2023-01-29T01:13:03;8.70;;;6.87;;
5945;SDS011;2998;48.206;16.394;2023-01-29T01:15:33;7.33;;;6.23;;
5945;SDS011;2998;48.206;16.394;2023-01-29T01:18:02;7.17;;;6.47;;
5945;SDS011;2998;48.206;16.394;2023-01-29T01:20:31;13.97;;;8.60;;
5945;SDS011;2998;48.206;16.394;2023-01-29T01:23:00;7.60;;;6.80;;
5945;SDS011;2998;48.206;16.394;2023-01-29T01:25:28;8.70;;;6.67;;
5945;SDS011;2998;48.206;16.394;2023-01-29T01:27:58;7.10;;;6.40;;
5945;SDS011;2998;48.206;16.394;2023-01-29T01:30:28;7.70;;;6.70;;
5945;SDS011;2998;48.206;16.394;2023-01-29T01:32:57;9.10;;;7.13;;
5945;SDS011;2998;48.206;16.394;2023-01-29T01:35:24;7.90;;;6.80;;
5945;SDS011;2998;48.206;16.394;2023-01-29T01:37:52;7.90;;;6.40;;
5945;SDS011;2998;48.206;16.394;2023-01-29T01:40:28;8.73;;;7.23;;
5945;SDS011;2998;48.206;16.394;2023-01-29T01:42:56;8.40;;;7.07;;
5945;SDS011;2998;48.206;16.394;2023-01-29T01:45:26;9.43;;;7.23;;
5945;SDS011;2998;48.206;16.394;2023-01-29T01:48:03;6.53;;;5.93;;
5945;SDS011;2998;48.206;16.394;2023-01-29T01:50:34;9.00;;;7.00;;
5945;SDS011;2998;48.206;16.394;2023-01-29T01:53:04;6.77;;;6.03;;
5945;SDS011;2998;48.206;16.394;2023-01-29T01:55:38;9.17;;;7.40;;
5945;SDS011;2998;48.206;16.394;2023-01-29T01:58:08;6.67;;;6.07;;
5945;SDS011;2998;48.206;16.394;2023-01-29T02:00:38;8.60;;;7.30;;
5945;SDS011;2998;48.206;16.394;2023-01-29T02:03:06;7.87;;;7.07;;
5945;SDS011;2998;48.206;16.394;2023-01-29T02:05:53;7.77;;;7.07;;
5945;SDS011;2998;48.206;16.394;2023-01-29T02:08:42;8.37;;;7.13;;
5945;SDS011;2998;48.206;16.394;2023-01-29T02:11:31;8.37;;;7.37;;
5945;SDS011;2998;48.206;16.394;2023-01-29T02:13:59;7.60;;;6.90;;
5945;SDS011;2998;48.206;16.394;2023-01-29T02:16:29;7.23;;;6.10;;
5945;SDS011;2998;48.206;16.394;2023-01-29T02:18:57;8.20;;;6.60;;
5945;SDS011;2998;48.206;16.394;2023-01-29T02:21:31;8.93;;;7.10;;
5945;SDS011;2998;48.206;16.394;2023-01-29T02:24:19;6.20;;;5.60;;
5945;SDS011;2998;48.206;16.394;2023-01-29T02:27:06;6.30;;;5.70;;
5945;SDS011;2998;48.206;16.394;2023-01-29T02:29:39;7.00;;;6.30;;
5945;SDS011;2998;48.206;16.394;2023-01-29T02:32:15;8.60;;;7.23;;
5945;SDS011;2998;48.206;16.394;2023-01-29T02:34:50;7.97;;;7.10;;
5945;SDS011;2998;48.206;16.394;2023-01-29T02:37:56;7.77;;;6.97;;
5945;SDS011;2998;48.206;16.394;2023-01-29T02:40:30;8.40;;;6.40;;
5945;SDS011;2998;48.206;16.394;2023-01-29T02:43:06;7.60;;;6.90;;
5945;SDS011;2998;48.206;16.394;2023-01-29T02:45:44;7.77;;;6.10;;
5945;SDS011;2998;48.206;16.394;2023-01-29T02:48:16;9.50;;;8.30;;
5945;SDS011;2998;48.206;16.394;2023-01-29T02:50:47;10.63;;;8.03;;
5945;SDS011;2998;48.206;16.394;2023-01-29T02:53:20;8.90;;;8.00;;
5945;SDS011;2998;48.206;16.394;2023-01-29T02:55:52;9.07;;;7.80;;
5945;SDS011;2998;48.206;16.394;2023-01-29T02:58:24;9.50;;;7.97;;
5945;SDS011;2998;48.206;16.394;2023-01-29T03:00:59;10.07;;;8.17;;
5945;SDS011;2998;48.206;16.394;2023-01-29T03:03:31;11.67;;;7.87;;
5945;SDS011;2998;48.206;16.394;2023-01-29T03:06:01;9.33;;;8.07;;
5945;SDS011;2998;48.206;16.394;2023-01-29T03:08:34;8.67;;;7.70;;
5945;SDS011;2998;48.206;16.394;2023-01-29T03:11:08;10.53;;;9.00;;
5945;SDS011;2998;48.206;16.394;2023-01-29T03:13:40;9.20;;;8.20;;
5945;SDS011;2998;48.206;16.394;2023-01-29T03:16:17;10.60;;;8.50;;
5945;SDS011;2998;48.206;16.394;2023-01-29T03:18:51;12.07;;;9.33;;
5945;SDS011;2998;48.206;16.394;2023-01-29T03:21:22;9.43;;;8.30;;
5945;SDS011;2998;48.206;16.394;2023-01-29T03:24:10;9.33;;;7.93;;
5945;SDS011;2998;48.206;16.394;2023-01-29T03:26:57;11.47;;;8.93;;
5945;SDS011;2998;48.206;16.394;2023-01-29T03:29:46;11.00;;;8.70;;
5945;SDS011;2998;48.206;16.394;2023-01-29T03:32:34;14.50;;;9.30;;
5945;SDS011;2998;48.206;16.394;2023-01-29T03:35:11;11.27;;;8.77;;
5945;SDS011;2998;48.206;16.394;2023-01-29T03:37:46;11.10;;;8.77;;
5945;SDS011;2998;48.206;16.394;2023-01-29T03:40:17;13.00;;;9.77;;
5945;SDS011;2998;48.206;16.394;2023-01-29T03:42:51;11.37;;;8.60;;
5945;SDS011;2998;48.206;16.394;2023-01-29T03:45:26;14.13;;;9.33;;
5945;SDS011;2998;48.206;16.394;2023-01-29T03:48:05;10.70;;;8.80;;
5945;SDS011;2998;48.206;16.394;2023-01-29T03:50:37;11.00;;;8.60;;
5945;SDS011;2998;48.206;16.394;2023-01-29T03:53:15;8.47;;;7.57;;
5945;SDS011;2998;48.206;16.394;2023-01-29T03:55:49;11.60;;;8.43;;
5945;SDS011;2998;48.206;16.394;2023-01-29T03:58:24;10.57;;;8.27;;
5945;SDS011;2998;48.206;16.394;2023-01-29T04:00:59;11.97;;;8.90;;
5945;SDS011;2998;48.206;16.394;2023-01-29T04:03:30;11.90;;;9.60;;
5945;SDS011;2998;48.206;16.394;2023-01-29T04:06:03;12.90;;;9.00;;
5945;SDS011;2998;48.206;16.394;2023-01-29T04:08:37;12.97;;;10.27;;
5945;SDS011;2998;48.206;16.394;2023-01-29T04:11:11;12.80;;;9.17;;
5945;SDS011;2998;48.206;16.394;2023-01-29T04:13:42;11.95;;;9.60;;
5945;SDS011;2998;48.206;16.394;2023-01-29T04:16:11;16.17;;;9.83;;
5945;SDS011;2998;48.206;16.394;2023-01-29T04:18:44;17.27;;;9.50;;
5945;SDS011;2998;48.206;16.394;2023-01-29T04:21:13;10.40;;;8.85;;
5945;SDS011;2998;48.206;16.394;2023-01-29T04:23:41;9.30;;;7.50;;
5945;SDS011;2998;48.206;16.394;2023-01-29T04:26:18;13.23;;;9.40;;
5945;SDS011;2998;48.206;16.394;2023-01-29T04:28:54;13.30;;;9.57;;
5945;SDS011;2998;48.206;16.394;2023-01-29T04:31:32;10.80;;;8.83;;
5945;SDS011;2998;48.206;16.394;2023-01-29T04:34:08;12.23;;;9.17;;
5945;SDS011;2998;48.206;16.394;2023-01-29T04:36:40;12.77;;;9.33;;
5945;SDS011;2998;48.206;16.394;2023-01-29T04:39:17;14.10;;;9.37;;
5945;SDS011;2998;48.206;16.394;2023-01-29T04:41:48;14.10;;;9.57;;
5945;SDS011;2998;48.206;16.394;2023-01-29T04:44:19;14.70;;;10.47;;
5945;SDS011;2998;48.206;16.394;2023-01-29T04:46:54;15.33;;;9.93;;
5945;SDS011;2998;48.206;16.394;2023-01-29T04:49:34;14.67;;;10.00;;
5945;SDS011;2998;48.206;16.394;2023-01-29T04:52:11;13.07;;;9.60;;
5945;SDS011;2998;48.206;16.394;2023-01-29T04:54:48;14.43;;;9.90;;
5945;SDS011;2998;48.206;16.394;2023-01-29T04:57:21;11.73;;;9.63;;
5945;SDS011;2998;48.206;16.394;2023-01-29T04:59:56;13.17;;;9.67;;
5945;SDS011;2998;48.206;16.394;2023-01-29T05:02:28;14.67;;;9.90;;
5945;SDS011;2998;48.206;16.394;2023-01-29T05:04:59;12.27;;;9.00;;
5945;SDS011;2998;48.206;16.394;2023-01-29T05:07:28;13.60;;;9.53;;
5945;SDS011;2998;48.206;16.394;2023-01-29T05:09:57;11.77;;;9.13;;
5945;SDS011;2998;48.206;16.394;2023-01-29T05:12:25;13.70;;;9.90;;
5945;SDS011;2998;48.206;16.394;2023-01-29T05:14:56;20.77;;;15.87;;
5945;SDS011;2998;48.206;16.394;2023-01-29T05:17:27;21.43;;;16.10;;
5945;SDS011;2998;48.206;16.394;2023-01-29T05:19:55;12.87;;;9.37;;
5945;SDS011;2998;48.206;16.394;2023-01-29T05:22:25;12.80;;;9.90;;
5945;SDS011;2998;48.206;16.394;2023-01-29T05:24:53;11.93;;;9.10;;
5945;SDS011;2998;48.206;16.394;2023-01-29T05:27:23;15.60;;;10.30;;
5945;SDS011;2998;48.206;16.394;2023-01-29T05:30:13;10.63;;;8.33;;
5945;SDS011;2998;48.206;16.394;2023-01-29T05:32:43;13.87;;;10.23;;
5945;SDS011;2998;48.206;16.394;2023-01-29T05:35:12;10.90;;;9.73;;
5945;SDS011;2998;48.206;16.394;2023-01-29T05:37:42;13.57;;;10.17;;
5945;SDS011;2998;48.206;16.394;2023-01-29T05:40:12;12.00;;;9.70;;
5945;SDS011;2998;48.206;16.394;2023-01-29T05:42:42;10.40;;;8.30;;
5945;SDS011;2998;48.206;16.394;2023-01-29T05:45:18;10.00;;;8.30;;
5945;SDS011;2998;48.206;16.394;2023-01-29T05:47:46;12.30;;;9.30;;
5945;SDS011;2998;48.206;16.394;2023-01-29T05:50:14;12.50;;;9.40;;
5945;SDS011;2998;48.206;16.394;2023-01-29T05:52:44;9.70;;;8.70;;
5945;SDS011;2998;48.206;16.394;2023-01-29T05:55:12;12.07;;;8.97;;
5945;SDS011;2998;48.206;16.394;2023-01-29T05:57:43;11.10;;;8.50;;
5945;SDS011;2998;48.206;16.394;2023-01-29T06:00:11;13.97;;;10.53;;
5945;SDS011;2998;48.206;16.394;2023-01-29T06:02:47;10.83;;;8.60;;
5945;SDS011;2998;48.206;16.394;2023-01-29T06:05:15;12.30;;;9.90;;
5945;SDS011;2998;48.206;16.394;2023-01-29T06:07:45;11.03;;;8.60;;
5945;SDS011;2998;48.206;16.394;2023-01-29T06:10:13;10.17;;;8.40;;
5945;SDS011;2998;48.206;16.394;2023-01-29T06:12:42;11.47;;;9.20;;
5945;SDS011;2998;48.206;16.394;2023-01-29T06:15:11;12.60;;;9.63;;
5945;SDS011;2998;48.206;16.394;2023-01-29T06:17:40;10.10;;;8.47;;
5945;SDS011;2998;48.206;16.394;2023-01-29T06:20:09;9.43;;;8.43;;
5945;SDS011;2998;48.206;16.394;2023-01-29T06:22:38;9.00;;;7.77;;
5945;SDS011;2998;48.206;16.394;2023-01-29T06:25:07;11.33;;;8.73;;
5945;SDS011;2998;48.206;16.394;2023-01-29T06:27:36;12.40;;;9.53;;
5945;SDS011;2998;48.206;16.394;2023-01-29T06:30:07;13.50;;;9.50;;
5945;SDS011;2998;48.206;16.394;2023-01-29T06:32:36;10.93;;;9.47;;
5945;SDS011;2998;48.206;16.394;2023-01-29T06:35:04;12.60;;;9.70;;
5945;SDS011;2998;48.206;16.394;2023-01-29T06:37:33;15.83;;;9.63;;
5945;SDS011;2998;48.206;16.394;2023-01-29T06:40:00;12.13;;;9.00;;
5945;SDS011;2998;48.206;16.394;2023-01-29T06:42:39;10.13;;;8.83;;
5945;SDS011;2998;48.206;16.394;2023-01-29T06:45:08;13.63;;;9.70;;
5945;SDS011;2998;48.206;16.394;2023-01-29T06:47:36;11.13;;;9.03;;
5945;SDS011;2998;48.206;16.394;2023-01-29T06:50:04;11.30;;;9.03;;
5945;SDS011;2998;48.206;16.394;2023-01-29T06:52:33;13.00;;;9.40;;
5945;SDS011;2998;48.206;16.394;2023-01-29T06:55:03;11.30;;;9.00;;
5945;SDS011;2998;48.206;16.394;2023-01-29T06:57:32;11.47;;;9.43;;
5945;SDS011;2998;48.206;16.394;2023-01-29T07:00:01;14.10;;;10.47;;
5945;SDS011;2998;48.206;16.394;2023-01-29T07:02:31;14.67;;;9.83;;
5945;SDS011;2998;48.206;16.394;2023-01-29T07:04:59;12.90;;;9.63;;
5945;SDS011;2998;48.206;16.394;2023-01-29T07:07:27;13.30;;;9.90;;
5945;SDS011;2998;48.206;16.394;2023-01-29T07:09:56;22.70;;;14.73;;
5945;SDS011;2998;48.206;16.394;2023-01-29T07:12:24;15.17;;;10.53;;
5945;SDS011;2998;48.206;16.394;2023-01-29T07:14:52;15.13;;;10.50;;
5945;SDS011;2998;48.206;16.394;2023-01-29T07:17:22;15.00;;;10.60;;
5945;SDS011;2998;48.206;16.394;2023-01-29T07:19:52;19.33;;;10.47;;
5945;SDS011;2998;48.206;16.394;2023-01-29T07:22:19;13.77;;;9.23;;
5945;SDS011;2998;48.206;16.394;2023-01-29T07:24:49;13.00;;;9.80;;
5945;SDS011;2998;48.206;16.394;2023-01-29T07:27:17;14.30;;;10.07;;
5945;SDS011;2998;48.206;16.394;2023-01-29T07:29:45;15.17;;;10.43;;
5945;SDS011;2998;48.206;16.394;2023-01-29T07:32:13;61.37;;;35.37;;
5945;SDS011;2998;48.206;16.394;2023-01-29T07:34:44;15.03;;;10.90;;
5945;SDS011;2998;48.206;16.394;2023-01-29T07:37:12;16.37;;;10.80;;
5945;SDS011;2998;48.206;16.394;2023-01-29T07:39:40;14.80;;;10.57;;
5945;SDS011;2998;48.206;16.394;2023-01-29T07:42:08;15.23;;;10.87;;
5945;SDS011;2998;48.206;16.394;2023-01-29T07:44:36;20.30;;;13.03;;
5945;SDS011;2998;48.206;16.394;2023-01-29T07:47:04;15.47;;;12.53;;
5945;SDS011;2998;48.206;16.394;2023-01-29T07:49:34;20.80;;;11.90;;
5945;SDS011;2998;48.206;16.394;2023-01-29T07:52:06;20.70;;;12.70;;
5945;SDS011;2998;48.206;16.394;2023-01-29T07:54:34;15.93;;;9.70;;
5945;SDS011;2998;48.206;16.394;2023-01-29T07:57:02;17.53;;;11.00;;
5945;SDS011;2998;48.206;16.394;2023-01-29T07:59:32;20.00;;;11.97;;
5945;SDS011;2998;48.206;16.394;2023-01-29T08:02:00;15.47;;;10.30;;
5945;SDS011;2998;48.206;16.394;2023-01-29T08:04:28;12.47;;;9.83;;
5945;SDS011;2998;48.206;16.394;2023-01-29T08:06:56;15.03;;;9.73;;
5945;SDS011;2998;48.206;16.394;2023-01-29T08:09:25;12.70;;;8.07;;
5945;SDS011;2998;48.206;16.394;2023-01-29T08:12:00;13.60;;;9.90;;
5945;SDS011;2998;48.206;16.394;2023-01-29T08:14:28;11.03;;;7.77;;
5945;SDS011;2998;48.206;16.394;2023-01-29T08:16:56;8.60;;;5.87;;
5945;SDS011;2998;48.206;16.394;2023-01-29T08:19:24;5.10;;;4.63;;
5945;SDS011;2998;48.206;16.394;2023-01-29T08:21:52;5.37;;;4.90;;
5945;SDS011;2998;48.206;16.394;2023-01-29T08:24:20;5.97;;;4.90;;
5945;SDS011;2998;48.206;16.394;2023-01-29T08:27:02;4.07;;;3.70;;
5945;SDS011;2998;48.206;16.394;2023-01-29T08:29:30;4.60;;;4.30;;
5945;SDS011;2998;48.206;16.394;2023-01-29T08:31:58;5.40;;;4.90;;
5945;SDS011;2998;48.206;16.394;2023-01-29T08:34:28;5.20;;;4.80;;
5945;SDS011;2998;48.206;16.394;2023-01-29T08:36:57;7.87;;;5.67;;
5945;SDS011;2998;48.206;16.394;2023-01-29T08:39:28;5.87;;;5.33;;
5945;SDS011;2998;48.206;16.394;2023-01-29T08:41:59;11.00;;;6.17;;
5945;SDS011;2998;48.206;16.394;2023-01-29T08:44:29;5.27;;;4.60;;
5945;SDS011;2998;48.206;16.394;2023-01-29T08:46:57;5.83;;;5.23;;
5945;SDS011;2998;48.206;16.394;2023-01-29T08:49:24;6.93;;;5.40;;
5945;SDS011;2998;48.206;16.394;2023-01-29T08:51:53;6.50;;;5.80;;
5945;SDS011;2998;48.206;16.394;2023-01-29T08:54:22;5.30;;;4.90;;
5945;SDS011;2998;48.206;16.394;2023-01-29T08:56:50;6.70;;;6.00;;
5945;SDS011;2998;48.206;16.394;2023-01-29T08:59:18;7.10;;;5.53;;
5945;SDS011;2998;48.206;16.394;2023-01-29T09:01:49;6.57;;;5.87;;
5945;SDS011;2998;48.206;16.394;2023-01-29T09:04:17;10.60;;;6.37;;
5945;SDS011;2998;48.206;16.394;2023-01-29T09:06:45;8.07;;;6.43;;
5945;SDS011;2998;48.206;16.394;2023-01-29T09:09:13;7.93;;;6.53;;
5945;SDS011;2998;48.206;16.394;2023-01-29T09:11:41;6.83;;;5.90;;
5945;SDS011;2998;48.206;16.394;2023-01-29T09:14:09;9.80;;;6.27;;
5945;SDS011;2998;48.206;16.394;2023-01-29T09:16:39;10.90;;;5.53;;
5945;SDS011;2998;48.206;16.394;2023-01-29T09:19:09;12.13;;;6.50;;
5945;SDS011;2998;48.206;16.394;2023-01-29T09:21:37;7.67;;;6.17;;
5945;SDS011;2998;48.206;16.394;2023-01-29T09:24:05;7.63;;;6.27;;
5945;SDS011;2998;48.206;16.394;2023-01-29T09:26:33;8.20;;;6.63;;
5945;SDS011;2998;48.206;16.394;2023-01-29T09:29:02;6.50;;;5.93;;
5945;SDS011;2998;48.206;16.394;2023-01-29T09:31:30;8.10;;;6.47;;
5945;SDS011;2998;48.206;16.394;2023-01-29T09:33:59;7.37;;;6.67;;
5945;SDS011;2998;48.206;16.394;2023-01-29T09:36:29;7.37;;;6.27;;
5945;SDS011;2998;48.206;16.394;2023-01-29T09:38:57;14.73;;;7.37;;
5945;SDS011;2998;48.206;16.394;2023-01-29T09:41:28;9.60;;;7.30;;
5945;SDS011;2998;48.206;16.394;2023-01-29T09:44:05;6.73;;;6.20;;
5945;SDS011;2998;48.206;16.394;2023-01-29T09:46:41;6.13;;;5.50;;
5945;SDS011;2998;48.206;16.394;2023-01-29T09:49:11;7.03;;;5.67;;
5945;SDS011;2998;48.206;16.394;2023-01-29T09:51:44;7.80;;;6.07;;
5945;SDS011;2998;48.206;16.394;2023-01-29T09:54:18;7.70;;;6.37;;
5945;SDS011;2998;48.206;16.394;2023-01-29T09:56:52;7.73;;;5.90;;
5945;SDS011;2998;48.206;16.394;2023-01-29T09:59:21;10.33;;;7.03;;
5945;SDS011;2998;48.206;16.394;2023-01-29T10:01:52;10.47;;;8.77;;
5945;SDS011;2998;48.206;16.394;2023-01-29T10:04:38;6.27;;;5.67;;
5945;SDS011;2998;48.206;16.394;2023-01-29T10:07:17;6.33;;;5.47;;
5945;SDS011;2998;48.206;16.394;2023-01-29T10:09:57;7.63;;;6.90;;
5945;SDS011;2998;48.206;16.394;2023-01-29T10:12:57;10.53;;;5.20;;
5945;SDS011;2998;48.206;16.394;2023-01-29T10:15:46;6.60;;;6.00;;
5945;SDS011;2998;48.206;16.394;2023-01-29T10:18:32;6.43;;;5.73;;
5945;SDS011;2998;48.206;16.394;2023-01-29T10:24:44;6.03;;;5.43;;
5945;SDS011;2998;48.206;16.394;2023-01-29T10:27:17;5.67;;;5.17;;
5945;SDS011;2998;48.206;16.394;2023-01-29T10:29:46;4.93;;;4.60;;
5945;SDS011;2998;48.206;16.394;2023-01-29T10:32:16;5.43;;;4.90;;
5945;SDS011;2998;48.206;16.394;2023-01-29T10:34:46;5.33;;;4.90;;
5945;SDS011;2998;48.206;16.394;2023-01-29T10:37:17;5.80;;;5.30;;
5945;SDS011;2998;48.206;16.394;2023-01-29T10:39:48;7.40;;;4.93;;
5945;SDS011;2998;48.206;16.394;2023-01-29T10:42:21;9.10;;;6.10;;
5945;SDS011;2998;48.206;16.394;2023-01-29T10:44:59;10.97;;;6.77;;
5945;SDS011;2998;48.206;16.394;2023-01-29T10:47:36;7.70;;;5.73;;
5945;SDS011;2998;48.206;16.394;2023-01-29T10:50:24;5.70;;;5.10;;
5945;SDS011;2998;48.206;16.394;2023-01-29T10:53:08;4.67;;;4.37;;
5945;SDS011;2998;48.206;16.394;2023-01-29T10:55:51;5.23;;;4.13;;
5945;SDS011;2998;48.206;16.394;2023-01-29T10:58:28;9.57;;;5.70;;
5945;SDS011;2998;48.206;16.394;2023-01-29T11:00:59;6.00;;;4.40;;
5945;SDS011;2998;48.206;16.394;2023-01-29T11:03:28;5.77;;;5.20;;
5945;SDS011;2998;48.206;16.394;2023-01-29T11:05:59;8.37;;;5.07;;
5945;SDS011;2998;48.206;16.394;2023-01-29T11:08:33;5.33;;;4.93;;
5945;SDS011;2998;48.206;16.394;2023-01-29T11:11:07;8.17;;;5.10;;
5945;SDS011;2998;48.206;16.394;2023-01-29T11:13:37;11.47;;;5.67;;
5945;SDS011;2998;48.206;16.394;2023-01-29T11:16:08;8.20;;;5.10;;
5945;SDS011;2998;48.206;16.394;2023-01-29T11:18:55;25.50;;;7.17;;
5945;SDS011;2998;48.206;16.394;2023-01-29T11:21:24;5.23;;;4.87;;
5945;SDS011;2998;48.206;16.394;2023-01-29T11:24:06;5.30;;;4.90;;
5945;SDS011;2998;48.206;16.394;2023-01-29T11:26:38;5.50;;;5.10;;
5945;SDS011;2998;48.206;16.394;2023-01-29T11:31:57;4.50;;;4.20;;
5945;SDS011;2998;48.206;16.394;2023-01-29T11:34:28;5.10;;;4.60;;
5945;SDS011;2998;48.206;16.394;2023-01-29T11:36:58;9.63;;;4.60;;
5945;SDS011;2998;48.206;16.394;2023-01-29T11:39:27;5.10;;;4.60;;
5945;SDS011;2998;48.206;16.394;2023-01-29T11:41:58;5.20;;;4.90;;
5945;SDS011;2998;48.206;16.394;2023-01-29T11:44:31;4.80;;;4.30;;
5945;SDS011;2998;48.206;16.394;2023-01-29T11:47:09;5.63;;;5.10;;
5945;SDS011;2998;48.206;16.394;2023-01-29T11:49:39;4.60;;;4.20;;
5945;SDS011;2998;48.206;16.394;2023-01-29T11:52:11;4.93;;;4.50;;
5945;SDS011;2998;48.206;16.394;2023-01-29T11:54:42;5.33;;;4.93;;
5945;SDS011;2998;48.206;16.394;2023-01-29T11:57:21;4.77;;;4.37;;
5945;SDS011;2998;48.206;16.394;2023-01-29T11:59:51;4.30;;;4.00;;
5945;SDS011;2998;48.206;16.394;2023-01-29T12:02:22;5.50;;;4.97;;
5945;SDS011;2998;48.206;16.394;2023-01-29T12:04:56;4.30;;;4.00;;
5945;SDS011;2998;48.206;16.394;2023-01-29T12:07:26;4.10;;;3.80;;
5945;SDS011;2998;48.206;16.394;2023-01-29T12:09:55;3.50;;;3.27;;
5945;SDS011;2998;48.206;16.394;2023-01-29T12:12:29;4.20;;;3.90;;
5945;SDS011;2998;48.206;16.394;2023-01-29T12:15:04;4.37;;;4.07;;
5945;SDS011;2998;48.206;16.394;2023-01-29T12:17:51;3.83;;;3.53;;
5945;SDS011;2998;48.206;16.394;2023-01-29T12:20:26;5.07;;;4.63;;
5945;SDS011;2998;48.206;16.394;2023-01-29T12:23:02;4.07;;;3.77;;
5945;SDS011;2998;48.206;16.394;2023-01-29T12:25:36;4.07;;;3.77;;
5945;SDS011;2998;48.206;16.394;2023-01-29T12:28:14;4.50;;;4.20;;
5945;SDS011;2998;48.206;16.394;2023-01-29T12:30:51;4.30;;;4.00;;
5945;SDS011;2998;48.206;16.394;2023-01-29T12:33:26;4.53;;;4.13;;
5945;SDS011;2998;48.206;16.394;2023-01-29T12:36:12;3.83;;;3.53;;
5945;SDS011;2998;48.206;16.394;2023-01-29T12:38:42;4.53;;;4.23;;
5945;SDS011;2998;48.206;16.394;2023-01-29T12:41:18;4.60;;;4.30;;
5945;SDS011;2998;48.206;16.394;2023-01-29T12:43:53;5.50;;;5.00;;
5945;SDS011;2998;48.206;16.394;2023-01-29T12:46:23;6.03;;;5.53;;
5945;SDS011;2998;48.206;16.394;2023-01-29T12:48:54;10.60;;;6.23;;
5945;SDS011;2998;48.206;16.394;2023-01-29T12:51:24;4.87;;;4.50;;
5945;SDS011;2998;48.206;16.394;2023-01-29T12:53:55;4.37;;;4.07;;
5945;SDS011;2998;48.206;16.394;2023-01-29T12:56:26;82.67;;;29.87;;
5945;SDS011;2998;48.206;16.394;2023-01-29T12:58:57;12.70;;;7.43;;
5945;SDS011;2998;48.206;16.394;2023-01-29T13:01:29;5.30;;;4.90;;
5945;SDS011;2998;48.206;16.394;2023-01-29T13:04:00;5.10;;;4.60;;
5945;SDS011;2998;48.206;16.394;2023-01-29T13:06:30;12.10;;;7.53;;
5945;SDS011;2998;48.206;16.394;2023-01-29T13:09:02;112.60;;;42.50;;
5945;SDS011;2998;48.206;16.394;2023-01-29T13:11:32;116.90;;;37.93;;
5945;SDS011;2998;48.206;16.394;2023-01-29T13:14:05;126.20;;;40.73;;
5945;SDS011;2998;48.206;16.394;2023-01-29T13:16:36;70.47;;;23.93;;
5945;SDS011;2998;48.206;16.394;2023-01-29T13:19:12;6.37;;;5.10;;
5945;SDS011;2998;48.206;16.394;2023-01-29T13:21:44;14.63;;;8.33;;
5945;SDS011;2998;48.206;16.394;2023-01-29T13:24:15;6.17;;;5.37;;
5945;SDS011;2998;48.206;16.394;2023-01-29T13:26:45;4.80;;;4.40;;
5945;SDS011;2998;48.206;16.394;2023-01-29T13:29:20;6.20;;;5.10;;
5945;SDS011;2998;48.206;16.394;2023-01-29T13:31:49;4.83;;;4.47;;
5945;SDS011;2998;48.206;16.394;2023-01-29T13:34:20;9.50;;;6.50;;
5945;SDS011;2998;48.206;16.394;2023-01-29T13:36:53;8.63;;;5.20;;
5945;SDS011;2998;48.206;16.394;2023-01-29T13:39:23;30.23;;;12.60;;
5945;SDS011;2998;48.206;16.394;2023-01-29T13:41:55;20.80;;;9.60;;
5945;SDS011;2998;48.206;16.394;2023-01-29T13:44:27;5.00;;;4.60;;
5945;SDS011;2998;48.206;16.394;2023-01-29T13:46:59;7.07;;;5.40;;
5945;SDS011;2998;48.206;16.394;2023-01-29T13:49:34;5.93;;;5.33;;
5945;SDS011;2998;48.206;16.394;2023-01-29T13:52:14;6.13;;;5.53;;
5945;SDS011;2998;48.206;16.394;2023-01-29T13:54:49;5.17;;;4.70;;
5945;SDS011;2998;48.206;16.394;2023-01-29T13:57:32;4.83;;;4.50;;
5945;SDS011;2998;48.206;16.394;2023-01-29T14:06:39;4.70;;;4.40;;
5945;SDS011;2998;48.206;16.394;2023-01-29T14:12:30;5.30;;;4.90;;
5945;SDS011;2998;48.206;16.394;2023-01-29T14:15:12;4.83;;;4.43;;
5945;SDS011;2998;48.206;16.394;2023-01-29T14:18:03;4.80;;;4.50;;
5945;SDS011;2998;48.206;16.394;2023-01-29T14:20:58;5.80;;;5.30;;
5945;SDS011;2998;48.206;16.394;2023-01-29T14:23:34;8.97;;;5.60;;
5945;SDS011;2998;48.206;16.394;2023-01-29T14:26:29;5.30;;;4.83;;
5945;SDS011;2998;48.206;16.394;2023-01-29T14:29:00;4.63;;;4.37;;
5945;SDS011;2998;48.206;16.394;2023-01-29T14:31:31;6.87;;;6.13;;
5945;SDS011;2998;48.206;16.394;2023-01-29T14:34:05;4.73;;;4.33;;
5945;SDS011;2998;48.206;16.394;2023-01-29T14:36:39;5.47;;;4.97;;
5945;SDS011;2998;48.206;16.394;2023-01-29T14:39:17;5.47;;;4.97;;
5945;SDS011;2998;48.206;16.394;2023-01-29T14:41:47;5.37;;;4.97;;
5945;SDS011;2998;48.206;16.394;2023-01-29T14:50:46;6.23;;;5.67;;
5945;SDS011;2998;48.206;16.394;2023-01-29T14:53:21;5.63;;;5.23;;
5945;SDS011;2998;48.206;16.394;2023-01-29T14:56:09;5.83;;;5.33;;
5945;SDS011;2998;48.206;16.394;2023-01-29T14:58:54;5.90;;;5.30;;
5945;SDS011;2998;48.206;16.394;2023-01-29T15:01:25;5.67;;;5.17;;
5945;SDS011;2998;48.206;16.394;2023-01-29T15:03:57;5.30;;;4.97;;
5945;SDS011;2998;48.206;16.394;2023-01-29T15:06:28;5.53;;;5.13;;
5945;SDS011;2998;48.206;16.394;2023-01-29T15:09:09;9.00;;;4.90;;
5945;SDS011;2998;48.206;16.394;2023-01-29T15:11:42;16.87;;;7.80;;
5945;SDS011;2998;48.206;16.394;2023-01-29T15:14:16;4.60;;;4.30;;
5945;SDS011;2998;48.206;16.394;2023-01-29T15:16:56;7.53;;;5.40;;
5945;SDS011;2998;48.206;16.394;2023-01-29T15:19:31;8.20;;;4.93;;
5945;SDS011;2998;48.206;16.394;2023-01-29T15:22:04;5.30;;;4.80;;
5945;SDS011;2998;48.206;16.394;2023-01-29T15:24:36;6.20;;;5.70;;
5945;SDS011;2998;48.206;16.394;2023-01-29T15:27:05;14.53;;;5.90;;
5945;SDS011;2998;48.206;16.394;2023-01-29T15:29:34;7.47;;;5.23;;
5945;SDS011;2998;48.206;16.394;2023-01-29T15:32:03;8.40;;;5.43;;
5945;SDS011;2998;48.206;16.394;2023-01-29T15:34:32;8.40;;;4.90;;
5945;SDS011;2998;48.206;16.394;2023-01-29T15:37:00;5.43;;;4.67;;
5945;SDS011;2998;48.206;16.394;2023-01-29T15:39:30;10.07;;;5.17;;
5945;SDS011;2998;48.206;16.394;2023-01-29T15:42:13;9.23;;;4.80;;
5945;SDS011;2998;48.206;16.394;2023-01-29T15:44:47;7.53;;;5.67;;
5945;SDS011;2998;48.206;16.394;2023-01-29T15:47:15;5.10;;;4.80;;
5945;SDS011;2998;48.206;16.394;2023-01-29T15:49:44;4.53;;;4.23;;